Terminal Aerodrome Forecast
Issued by NWS

Home | Current Version | Previous Version | Text Only | Print | Product List | Glossary Off
Versions: 1 2 3 4 5 6 7 8 9 10 11 12 13 14 15 16 17 18 19 20 21 22 23 24 25 26 27 28 29 30 31 32 33 34 35 36 37 38 39 40 41 42 43 44 45 46 47 48 49 50

000
FTUS41 KCTP 261736
TAFBFD
TAF
KBFD 261736Z 2618/2718 27010KT P6SM VCSH BKN040
     FM261900 27011KT 6SM -SHRA VCTS OVC040CB
      TEMPO 2620/2623 3SM -TSRA OVC040CB
     FM270000 27007KT P6SM BKN090
     FM270300 VRB03KT P6SM FEW030 OVC100
     FM271000 27005KT P6SM VCSH OVC040=

USA.gov is the U.S. government's official web portal to all federal, state and local government web resources and services.